Time;durP1;ratioP1;P1;durP2;ratioP2;P2;SDS_P1;SDS_P2;PMS_P1;PMS_P2;Temp;Humidity;BMP_temperature;BMP_pressure;BME280_temperature;BME280_humidity;BME280_pressure;Samples;Min_cycle;Max_cycle;Signal;HPM_P1;HPM_P2
2021/10/11 00:00:42;;;;;;;;;;;23.60;49.10;;;;;;495227;241;1037;-47
2021/10/11 00:02:43;;;;;;;;;;;23.60;49.10;;;;;;495495;240;1201;-47
2021/10/11 00:04:45;;;;;;;;;;;23.60;49.10;;;;;;495636;240;1138;-47
2021/10/11 00:06:46;;;;;;;;;;;23.60;49.10;;;;;;495211;241;2239;-47
2021/10/11 00:08:47;;;;;;;;;;;23.60;49.10;;;;;;495307;241;1072;-46
2021/10/11 00:10:51;;;;;;;;;;;23.60;49.10;;;;;;495290;241;1104;-47
2021/10/11 00:12:50;;;;;;;;;;;23.60;49.00;;;;;;495165;240;2427;-47
2021/10/11 00:14:52;;;;;;;;;;;23.60;49.00;;;;;;495285;240;1083;-47
2021/10/11 00:16:53;;;;;;;;;;;23.60;49.00;;;;;;495276;240;1469;-47
2021/10/11 00:18:55;;;;;;;;;;;23.60;48.90;;;;;;495301;241;1087;-47
2021/10/11 00:20:56;;;;;;;;;;;23.60;48.90;;;;;;495702;240;1960;-47
2021/10/11 00:22:57;;;;;;;;;;;23.60;48.90;;;;;;495353;240;1043;-47
2021/10/11 00:24:58;;;;;;;;;;;23.60;49.00;;;;;;495472;240;1012;-47
2021/10/11 00:27:00;;;;;;;;;;;23.60;48.90;;;;;;495211;241;2180;-47
2021/10/11 00:29:01;;;;;;;;;;;23.70;48.90;;;;;;495328;240;1160;-47
2021/10/11 00:31:02;;;;;;;;;;;23.60;49.00;;;;;;495497;240;1241;-47
2021/10/11 00:33:05;;;;;;;;;;;23.60;49.00;;;;;;495281;240;1080;-47
2021/10/11 00:35:06;;;;;;;;;;;23.60;49.00;;;;;;495279;241;2401;-47
2021/10/11 00:37:07;;;;;;;;;;;23.60;49.00;;;;;;495627;240;1338;-47
2021/10/11 00:39:08;;;;;;;;;;;23.60;48.90;;;;;;495347;241;1075;-47
2021/10/11 00:41:09;;;;;;;;;;;23.60;48.90;;;;;;495446;240;1172;-47
2021/10/11 00:43:11;;;;;;;;;;;23.60;49.00;;;;;;495585;240;1257;-47
2021/10/11 00:45:12;;;;;;;;;;;23.60;49.00;;;;;;495791;240;1132;-47
2021/10/11 00:47:13;;;;;;;;;;;23.60;48.90;;;;;;495180;241;2178;-47
2021/10/11 00:49:15;;;;;;;;;;;23.60;49.00;;;;;;495349;241;1157;-47
2021/10/11 00:51:16;;;;;;;;;;;23.60;48.90;;;;;;495408;240;1189;-47
2021/10/11 00:53:17;;;;;;;;;;;23.60;49.00;;;;;;495724;240;1240;-47
2021/10/11 00:55:19;;;;;;;;;;;23.70;48.90;;;;;;495323;241;1065;-47
2021/10/11 00:57:20;;;;;;;;;;;23.70;48.80;;;;;;495240;240;1218;-47
2021/10/11 00:59:21;;;;;;;;;;;23.70;48.80;;;;;;495349;240;1164;-47
2021/10/11 01:01:23;;;;;;;;;;;23.70;48.80;;;;;;495280;241;1159;-47
2021/10/11 01:03:24;;;;;;;;;;;23.60;48.80;;;;;;495741;240;1092;-47
2021/10/11 01:05:25;;;;;;;;;;;23.60;48.80;;;;;;495437;240;1382;-47
2021/10/11 01:07:27;;;;;;;;;;;23.60;48.90;;;;;;495149;240;2182;-47
2021/10/11 01:09:28;;;;;;;;;;;23.70;48.90;;;;;;495753;240;1040;-47
2021/10/11 01:11:29;;;;;;;;;;;23.70;48.80;;;;;;495340;240;1439;-47
2021/10/11 01:13:30;;;;;;;;;;;23.70;48.80;;;;;;495278;241;1156;-47
2021/10/11 01:15:32;;;;;;;;;;;23.70;48.80;;;;;;495328;240;1119;-47
2021/10/11 01:17:33;;;;;;;;;;;23.60;48.80;;;;;;495580;240;1275;-47
2021/10/11 01:19:34;;;;;;;;;;;23.60;48.80;;;;;;495291;241;1035;-47
2021/10/11 01:21:36;;;;;;;;;;;23.60;48.80;;;;;;495511;240;1217;-47
2021/10/11 01:23:37;;;;;;;;;;;23.60;48.80;;;;;;495384;240;1051;-47
2021/10/11 01:25:38;;;;;;;;;;;23.60;48.90;;;;;;495750;240;1403;-47
2021/10/11 01:27:40;;;;;;;;;;;23.60;48.80;;;;;;495265;241;2123;-47
2021/10/11 01:29:41;;;;;;;;;;;23.70;48.80;;;;;;495313;241;1223;-47
2021/10/11 01:31:42;;;;;;;;;;;23.60;48.80;;;;;;495282;240;1234;-47
2021/10/11 01:33:44;;;;;;;;;;;23.60;48.80;;;;;;495765;240;1131;-47
2021/10/11 01:35:45;;;;;;;;;;;23.60;48.80;;;;;;495281;241;1022;-47
2021/10/11 01:37:47;;;;;;;;;;;23.70;48.80;;;;;;495256;241;1193;-47
2021/10/11 01:39:48;;;;;;;;;;;23.60;48.70;;;;;;495266;241;2307;-47
2021/10/11 01:41:49;;;;;;;;;;;23.70;48.80;;;;;;495693;240;1327;-47
2021/10/11 01:43:50;;;;;;;;;;;23.60;48.80;;;;;;495308;241;1148;-47
2021/10/11 01:45:52;;;;;;;;;;;23.60;48.80;;;;;;495266;241;1432;-47
2021/10/11 01:47:53;;;;;;;;;;;23.60;48.80;;;;;;495252;240;2107;-47
2021/10/11 01:49:55;;;;;;;;;;;23.70;48.80;;;;;;495312;241;1107;-46
2021/10/11 01:51:56;;;;;;;;;;;23.70;48.80;;;;;;495272;241;1219;-47
2021/10/11 01:53:57;;;;;;;;;;;23.60;48.80;;;;;;495754;240;1018;-47
2021/10/11 01:55:58;;;;;;;;;;;23.60;48.70;;;;;;495589;237;1321;-47
2021/10/11 01:58:00;;;;;;;;;;;23.60;48.80;;;;;;495275;240;1194;-47
2021/10/11 02:00:01;;;;;;;;;;;23.60;48.70;;;;;;495341;241;1226;-47
2021/10/11 02:02:03;;;;;;;;;;;23.60;48.70;;;;;;495210;241;1160;-47
2021/10/11 02:04:04;;;;;;;;;;;23.60;48.80;;;;;;495314;241;1060;-47
2021/10/11 02:06:05;;;;;;;;;;;23.60;48.70;;;;;;495487;240;1372;-47
2021/10/11 02:08:07;;;;;;;;;;;23.60;48.70;;;;;;495286;240;1255;-47
2021/10/11 02:10:08;;;;;;;;;;;23.70;48.70;;;;;;495304;241;1036;-47
2021/10/11 02:12:09;;;;;;;;;;;23.60;48.60;;;;;;495698;240;1233;-47
2021/10/11 02:14:11;;;;;;;;;;;23.70;48.70;;;;;;495624;240;1274;-47
2021/10/11 02:16:12;;;;;;;;;;;23.60;48.70;;;;;;495283;241;1376;-46
2021/10/11 02:18:13;;;;;;;;;;;23.60;48.70;;;;;;495486;240;1053;-47
2021/10/11 02:20:15;;;;;;;;;;;23.60;48.70;;;;;;495631;240;1140;-47
2021/10/11 02:22:16;;;;;;;;;;;23.60;48.70;;;;;;495232;241;1056;-47
2021/10/11 02:24:17;;;;;;;;;;;23.60;48.70;;;;;;495782;240;1078;-47
2021/10/11 02:26:19;;;;;;;;;;;23.60;48.70;;;;;;495214;241;2181;-47
2021/10/11 02:28:20;;;;;;;;;;;23.60;48.70;;;;;;495792;240;1145;-47
2021/10/11 02:30:21;;;;;;;;;;;23.60;48.70;;;;;;495348;241;1217;-47
2021/10/11 02:32:23;;;;;;;;;;;23.60;48.60;;;;;;495709;240;1196;-47
2021/10/11 02:34:24;;;;;;;;;;;23.60;48.60;;;;;;495491;240;1030;-47
2021/10/11 02:36:25;;;;;;;;;;;23.60;48.70;;;;;;495273;241;1244;-47
2021/10/11 02:38:26;;;;;;;;;;;23.60;48.70;;;;;;495784;240;1066;-47
2021/10/11 02:40:28;;;;;;;;;;;23.60;48.70;;;;;;495294;241;1124;-47
2021/10/11 02:42:30;;;;;;;;;;;23.60;48.60;;;;;;495636;240;1235;-47
2021/10/11 02:44:31;;;;;;;;;;;23.60;48.70;;;;;;495643;240;1265;-47
2021/10/11 02:46:32;;;;;;;;;;;23.60;48.60;;;;;;495457;240;2183;-47
2021/10/11 02:48:33;;;;;;;;;;;23.60;48.60;;;;;;495752;240;1064;-47
2021/10/11 02:50:35;;;;;;;;;;;23.60;48.60;;;;;;495222;241;1290;-47
2021/10/11 02:52:36;;;;;;;;;;;23.60;48.60;;;;;;495182;241;1235;-47
2021/10/11 02:54:37;;;;;;;;;;;23.60;48.50;;;;;;495251;241;1290;-47
2021/10/11 02:56:39;;;;;;;;;;;23.60;48.70;;;;;;495211;241;1455;-47
2021/10/11 02:58:40;;;;;;;;;;;23.60;48.70;;;;;;495791;240;1078;-47
2021/10/11 03:00:41;;;;;;;;;;;23.60;48.60;;;;;;495350;237;1401;-47
2021/10/11 03:02:43;;;;;;;;;;;23.60;48.60;;;;;;495562;240;1135;-47
2021/10/11 03:04:44;;;;;;;;;;;23.60;48.50;;;;;;495300;241;1231;-47
2021/10/11 03:06:45;;;;;;;;;;;23.70;48.60;;;;;;495216;241;2181;-47
2021/10/11 03:08:47;;;;;;;;;;;23.60;48.60;;;;;;495299;241;1242;-47
2021/10/11 03:10:48;;;;;;;;;;;23.60;48.60;;;;;;495554;240;1513;-47
2021/10/11 03:12:49;;;;;;;;;;;23.60;48.60;;;;;;495576;240;1659;-47
2021/10/11 03:14:51;;;;;;;;;;;23.60;48.60;;;;;;495564;240;1237;-47
2021/10/11 03:16:52;;;;;;;;;;;23.60;48.50;;;;;;495246;241;1134;-47
2021/10/11 03:18:53;;;;;;;;;;;23.60;48.50;;;;;;495311;241;1073;-47
2021/10/11 03:20:54;;;;;;;;;;;23.60;48.60;;;;;;495304;241;1011;-47
2021/10/11 03:22:56;;;;;;;;;;;23.60;48.60;;;;;;495517;240;1202;-47
2021/10/11 03:24:57;;;;;;;;;;;23.60;48.60;;;;;;495312;241;1010;-47
2021/10/11 03:26:58;;;;;;;;;;;23.60;48.60;;;;;;495534;240;2120;-47
2021/10/11 03:29:00;;;;;;;;;;;23.60;48.60;;;;;;495792;240;1212;-47
2021/10/11 03:31:01;;;;;;;;;;;23.60;48.70;;;;;;495347;240;1191;-47
2021/10/11 03:33:02;;;;;;;;;;;23.60;48.70;;;;;;495317;241;1059;-47
2021/10/11 03:35:04;;;;;;;;;;;23.60;48.60;;;;;;495798;240;985;-47
2021/10/11 03:37:05;;;;;;;;;;;23.60;48.50;;;;;;495346;240;1130;-47
2021/10/11 03:39:06;;;;;;;;;;;23.60;48.50;;;;;;495308;241;1297;-47
2021/10/11 03:41:08;;;;;;;;;;;23.60;48.60;;;;;;495466;240;1374;-47
2021/10/11 03:43:09;;;;;;;;;;;23.60;48.60;;;;;;495382;240;1261;-47
2021/10/11 03:45:10;;;;;;;;;;;23.60;48.70;;;;;;495539;240;1207;-47
2021/10/11 03:47:12;;;;;;;;;;;23.60;48.60;;;;;;495111;241;2110;-47
2021/10/11 03:49:13;;;;;;;;;;;23.60;48.60;;;;;;495296;241;1042;-47
2021/10/11 03:51:14;;;;;;;;;;;23.60;48.50;;;;;;495215;241;1317;-47
2021/10/11 03:53:16;;;;;;;;;;;23.60;48.50;;;;;;495735;240;1196;-47
2021/10/11 03:55:17;;;;;;;;;;;23.60;48.60;;;;;;495322;240;1030;-47
2021/10/11 03:57:19;;;;;;;;;;;23.60;48.50;;;;;;495324;240;1526;-47
2021/10/11 03:59:20;;;;;;;;;;;23.60;48.50;;;;;;495194;241;1269;-47
2021/10/11 04:01:22;;;;;;;;;;;23.70;48.40;;;;;;495308;240;1619;-47
2021/10/11 04:03:23;;;;;;;;;;;23.60;48.40;;;;;;495698;240;1185;-47
2021/10/11 04:05:24;;;;;;;;;;;23.60;48.40;;;;;;495450;240;1031;-47
2021/10/11 04:07:26;;;;;;;;;;;23.60;48.50;;;;;;495190;241;2103;-47
2021/10/11 04:09:28;;;;;;;;;;;23.70;48.50;;;;;;495464;240;1084;-47
2021/10/11 04:11:30;;;;;;;;;;;23.60;48.50;;;;;;495237;240;2029;-47
2021/10/11 04:13:29;;;;;;;;;;;23.60;48.50;;;;;;495101;240;1807;-47
2021/10/11 04:15:31;;;;;;;;;;;23.60;48.40;;;;;;495230;241;1097;-46
2021/10/11 04:17:37;;;;;;;;;;;23.60;48.50;;;;;;495384;240;1456;-47
2021/10/11 04:19:33;;;;;;;;;;;23.60;48.50;;;;;;495035;240;2050;-47
2021/10/11 04:21:35;;;;;;;;;;;23.60;48.50;;;;;;495248;241;1198;-47
2021/10/11 04:23:37;;;;;;;;;;;23.60;48.50;;;;;;495160;241;1234;-47
2021/10/11 04:25:38;;;;;;;;;;;23.60;48.50;;;;;;495451;240;1268;-47
2021/10/11 04:27:40;;;;;;;;;;;23.60;48.50;;;;;;495194;241;2189;-47
2021/10/11 04:29:41;;;;;;;;;;;23.70;48.40;;;;;;495260;241;1087;-47
2021/10/11 04:31:42;;;;;;;;;;;23.60;48.50;;;;;;495093;241;1321;-47
2021/10/11 04:33:43;;;;;;;;;;;23.60;48.50;;;;;;495530;240;1198;-47
2021/10/11 04:35:46;;;;;;;;;;;23.60;48.50;;;;;;495441;236;1176;-47
2021/10/11 04:37:47;;;;;;;;;;;23.60;48.50;;;;;;495147;241;1140;-47
2021/10/11 04:39:49;;;;;;;;;;;23.60;48.50;;;;;;495689;240;1056;-47
2021/10/11 04:41:50;;;;;;;;;;;23.60;48.40;;;;;;495088;241;1162;-47
2021/10/11 04:43:51;;;;;;;;;;;23.60;48.40;;;;;;495240;240;1209;-47
2021/10/11 04:45:52;;;;;;;;;;;23.60;48.40;;;;;;495348;237;1303;-47
2021/10/11 04:47:53;;;;;;;;;;;23.60;48.50;;;;;;495095;241;2178;-47
2021/10/11 04:49:55;;;;;;;;;;;23.60;48.50;;;;;;495201;240;1152;-47
2021/10/11 04:51:56;;;;;;;;;;;23.60;48.50;;;;;;495149;241;1488;-47
2021/10/11 04:53:57;;;;;;;;;;;23.60;48.50;;;;;;495468;240;984;-47
2021/10/11 04:55:59;;;;;;;;;;;23.60;48.50;;;;;;495072;241;1142;-47
2021/10/11 04:58:01;;;;;;;;;;;23.60;48.40;;;;;;495054;241;1299;-47
2021/10/11 05:00:02;;;;;;;;;;;23.60;48.30;;;;;;495096;240;1085;-47
2021/10/11 05:02:04;;;;;;;;;;;23.70;48.30;;;;;;495020;241;1278;-47
2021/10/11 05:04:05;;;;;;;;;;;23.60;48.30;;;;;;495367;240;1110;-47
2021/10/11 05:06:06;;;;;;;;;;;23.60;48.30;;;;;;494884;241;1344;-47
2021/10/11 05:08:07;;;;;;;;;;;23.70;48.30;;;;;;494886;241;2182;-47
2021/10/11 05:10:09;;;;;;;;;;;23.70;48.40;;;;;;495277;240;1236;-47
2021/10/11 05:12:10;;;;;;;;;;;23.60;48.30;;;;;;495148;240;1317;-47
2021/10/11 05:14:11;;;;;;;;;;;23.70;48.30;;;;;;495150;240;992;-47
2021/10/11 05:16:14;;;;;;;;;;;23.60;48.30;;;;;;495097;240;1185;-47
2021/10/11 05:18:14;;;;;;;;;;;23.60;48.30;;;;;;494937;241;2271;-47
2021/10/11 05:20:15;;;;;;;;;;;23.60;48.30;;;;;;495141;240;1045;-46
2021/10/11 05:22:17;;;;;;;;;;;23.60;48.30;;;;;;494945;241;1275;-47
2021/10/11 05:24:18;;;;;;;;;;;23.60;48.30;;;;;;494962;241;1068;-47
2021/10/11 05:26:19;;;;;;;;;;;23.60;48.30;;;;;;494929;240;1038;-47
2021/10/11 05:28:21;;;;;;;;;;;23.60;48.30;;;;;;494888;240;2181;-47
2021/10/11 05:30:22;;;;;;;;;;;23.60;48.30;;;;;;495365;240;1070;-47
2021/10/11 05:32:23;;;;;;;;;;;23.60;48.20;;;;;;495017;240;1165;-47
2021/10/11 05:34:24;;;;;;;;;;;23.60;48.20;;;;;;495184;240;1074;-47
2021/10/11 05:36:26;;;;;;;;;;;23.60;48.20;;;;;;495083;240;1111;-47
2021/10/11 05:38:28;;;;;;;;;;;23.70;48.30;;;;;;494935;241;1344;-46
2021/10/11 05:40:29;;;;;;;;;;;23.60;48.30;;;;;;494952;241;1046;-47
2021/10/11 05:42:30;;;;;;;;;;;23.60;48.30;;;;;;494857;240;1200;-47
2021/10/11 05:44:31;;;;;;;;;;;23.60;48.40;;;;;;494884;241;1052;-46
2021/10/11 05:46:33;;;;;;;;;;;23.60;48.30;;;;;;494823;240;1229;-46
2021/10/11 05:48:34;;;;;;;;;;;23.60;48.30;;;;;;494836;241;2181;-47
2021/10/11 05:50:35;;;;;;;;;;;23.60;48.30;;;;;;495001;240;1052;-46
2021/10/11 05:52:37;;;;;;;;;;;23.60;48.30;;;;;;494813;241;1177;-47
2021/10/11 05:54:38;;;;;;;;;;;23.60;48.20;;;;;;494813;241;2030;-47
2021/10/11 05:56:39;;;;;;;;;;;23.70;48.20;;;;;;494806;240;1274;-47
2021/10/11 05:58:41;;;;;;;;;;;23.60;48.20;;;;;;494775;240;1040;-47
2021/10/11 06:00:42;;;;;;;;;;;23.70;48.20;;;;;;494696;240;1219;-47
2021/10/11 06:02:44;;;;;;;;;;;23.70;48.20;;;;;;494624;240;1214;-47
2021/10/11 06:04:45;;;;;;;;;;;23.70;48.20;;;;;;494716;240;1331;-47
2021/10/11 06:06:46;;;;;;;;;;;23.70;48.20;;;;;;494697;241;1226;-47
2021/10/11 06:08:48;;;;;;;;;;;23.70;48.20;;;;;;494947;240;2142;-47
2021/10/11 06:10:49;;;;;;;;;;;23.70;48.20;;;;;;494633;241;1105;-47
2021/10/11 06:12:50;;;;;;;;;;;23.60;48.10;;;;;;494849;240;1225;-47
2021/10/11 06:14:52;;;;;;;;;;;23.60;48.20;;;;;;494800;240;1083;-47
2021/10/11 06:16:54;;;;;;;;;;;23.70;48.20;;;;;;494602;241;1284;-47
2021/10/11 06:18:55;;;;;;;;;;;23.60;48.20;;;;;;494795;240;1099;-47
2021/10/11 06:20:56;;;;;;;;;;;23.70;48.10;;;;;;494672;241;1309;-47
2021/10/11 06:22:57;;;;;;;;;;;23.60;48.10;;;;;;494662;240;1172;-48
2021/10/11 06:24:59;;;;;;;;;;;23.60;48.20;;;;;;494579;241;1154;-47
2021/10/11 06:27:03;;;;;;;;;;;23.70;48.20;;;;;;494532;241;1180;-47
2021/10/11 06:29:02;;;;;;;;;;;23.70;48.10;;;;;;494272;240;2170;-47
2021/10/11 06:31:03;;;;;;;;;;;23.60;48.00;;;;;;494621;240;1383;-47
2021/10/11 06:33:05;;;;;;;;;;;23.70;48.10;;;;;;494657;241;1345;-47
2021/10/11 06:35:06;;;;;;;;;;;23.70;48.10;;;;;;494764;240;1124;-46
2021/10/11 06:37:09;;;;;;;;;;;23.70;48.10;;;;;;494608;241;1197;-47
2021/10/11 06:39:09;;;;;;;;;;;23.60;48.10;;;;;;494499;240;1403;-47
2021/10/11 06:41:10;;;;;;;;;;;23.60;48.10;;;;;;494283;240;1337;-47
2021/10/11 06:43:12;;;;;;;;;;;23.70;48.20;;;;;;494463;241;1164;-47
2021/10/11 06:45:14;;;;;;;;;;;23.70;48.10;;;;;;494728;240;1327;-47
2021/10/11 06:47:14;;;;;;;;;;;23.60;48.10;;;;;;494494;240;2043;-47
2021/10/11 06:49:16;;;;;;;;;;;23.70;48.10;;;;;;494554;240;2177;-47
2021/10/11 06:51:17;;;;;;;;;;;23.60;48.10;;;;;;494644;241;1143;-47
2021/10/11 06:53:18;;;;;;;;;;;23.60;48.20;;;;;;494760;240;1061;-47
2021/10/11 06:55:20;;;;;;;;;;;23.60;48.20;;;;;;494466;240;1177;-47
2021/10/11 06:57:21;;;;;;;;;;;23.70;48.20;;;;;;494399;240;1196;-47
2021/10/11 06:59:22;;;;;;;;;;;23.60;48.10;;;;;;494506;240;1041;-47
2021/10/11 07:01:23;;;;;;;;;;;23.60;48.10;;;;;;494545;240;1233;-47
2021/10/11 07:03:25;;;;;;;;;;;23.60;48.10;;;;;;494684;240;1203;-47
2021/10/11 07:05:27;;;;;;;;;;;23.60;48.10;;;;;;494536;240;1136;-47
2021/10/11 07:07:29;;;;;;;;;;;23.70;48.10;;;;;;494305;240;2147;-47
2021/10/11 07:09:29;;;;;;;;;;;23.70;48.00;;;;;;494447;240;2197;-47
2021/10/11 07:11:30;;;;;;;;;;;23.60;48.00;;;;;;494417;241;1323;-47
2021/10/11 07:13:32;;;;;;;;;;;23.60;48.10;;;;;;494463;240;1143;-47
2021/10/11 07:15:34;;;;;;;;;;;23.60;48.10;;;;;;494343;241;1076;-47
2021/10/11 07:17:35;;;;;;;;;;;23.60;48.10;;;;;;494375;240;1223;-47
2021/10/11 07:19:36;;;;;;;;;;;23.60;48.00;;;;;;494412;241;1051;-47
2021/10/11 07:21:38;;;;;;;;;;;23.60;48.10;;;;;;494419;240;1332;-47
2021/10/11 07:23:39;;;;;;;;;;;23.60;48.10;;;;;;494605;241;1232;-47
2021/10/11 07:25:40;;;;;;;;;;;23.70;48.10;;;;;;494435;240;1100;-47
2021/10/11 07:27:41;;;;;;;;;;;23.60;48.10;;;;;;494113;240;1313;-47
2021/10/11 07:29:43;;;;;;;;;;;23.60;48.10;;;;;;494301;241;2183;-47
2021/10/11 07:31:44;;;;;;;;;;;23.60;48.10;;;;;;494576;240;1422;-47
2021/10/11 07:33:46;;;;;;;;;;;23.60;48.10;;;;;;494484;240;1201;-47
2021/10/11 07:35:47;;;;;;;;;;;23.70;48.00;;;;;;494449;240;1435;-47
2021/10/11 07:37:48;;;;;;;;;;;23.70;48.00;;;;;;494426;241;1183;-47
2021/10/11 07:39:50;;;;;;;;;;;23.70;48.00;;;;;;494841;240;1089;-46
2021/10/11 07:41:51;;;;;;;;;;;23.70;48.00;;;;;;494300;240;1318;-47
2021/10/11 07:43:52;;;;;;;;;;;23.60;48.10;;;;;;494342;240;1034;-47
2021/10/11 07:45:55;;;;;;;;;;;23.70;48.10;;;;;;494272;241;1405;-47
2021/10/11 07:47:55;;;;;;;;;;;23.70;48.30;;;;;;494526;240;1959;-47
2021/10/11 07:49:56;;;;;;;;;;;23.60;48.30;;;;;;494954;240;2199;-46
2021/10/11 07:51:58;;;;;;;;;;;23.70;48.40;;;;;;494482;240;1569;-47
2021/10/11 07:53:59;;;;;;;;;;;23.70;48.40;;;;;;494473;241;1118;-47
2021/10/11 07:56:00;;;;;;;;;;;23.70;48.50;;;;;;493989;241;1286;-46
2021/10/11 07:58:02;;;;;;;;;;;23.60;48.40;;;;;;494311;241;1022;-47
2021/10/11 08:00:03;;;;;;;;;;;23.70;48.60;;;;;;494938;240;1063;-47
2021/10/11 08:02:05;;;;;;;;;;;23.70;48.70;;;;;;494491;241;1096;-46
2021/10/11 08:04:06;;;;;;;;;;;23.70;48.50;;;;;;494392;240;1140;-47
2021/10/11 08:06:07;;;;;;;;;;;23.70;48.60;;;;;;494215;240;1454;-47
2021/10/11 08:08:09;;;;;;;;;;;23.70;48.60;;;;;;494261;240;1230;-47
2021/10/11 08:10:10;;;;;;;;;;;23.70;48.60;;;;;;494482;240;2215;-47
2021/10/11 08:12:11;;;;;;;;;;;23.70;48.70;;;;;;494647;240;1137;-47
2021/10/11 08:14:12;;;;;;;;;;;23.70;48.70;;;;;;494521;241;1053;-47
2021/10/11 08:16:14;;;;;;;;;;;23.70;48.70;;;;;;494409;240;1366;-47
2021/10/11 08:18:15;;;;;;;;;;;23.70;48.70;;;;;;494415;240;1168;-47
2021/10/11 08:20:16;;;;;;;;;;;23.70;48.80;;;;;;494378;241;1240;-47
2021/10/11 08:22:19;;;;;;;;;;;23.70;48.80;;;;;;494327;241;1107;-46
2021/10/11 08:24:20;;;;;;;;;;;23.70;48.90;;;;;;494886;240;2712;-47
2021/10/11 08:26:21;;;;;;;;;;;23.70;48.90;;;;;;494519;240;1315;-47
2021/10/11 08:28:22;;;;;;;;;;;23.70;49.00;;;;;;495140;240;2194;-47
2021/10/11 08:30:24;;;;;;;;;;;23.80;49.10;;;;;;494351;241;1361;-47
2021/10/11 08:32:25;;;;;;;;;;;23.70;48.90;;;;;;494225;241;1331;-47
2021/10/11 08:34:26;;;;;;;;;;;23.80;48.90;;;;;;494520;241;1191;-47
2021/10/11 08:36:28;;;;;;;;;;;23.70;48.90;;;;;;494510;240;1224;-47
2021/10/11 08:38:29;;;;;;;;;;;23.80;49.00;;;;;;494424;240;1182;-47
2021/10/11 08:40:30;;;;;;;;;;;23.80;49.00;;;;;;494260;241;1299;-47
2021/10/11 08:42:32;;;;;;;;;;;23.70;49.10;;;;;;494242;240;1220;-47
2021/10/11 08:44:33;;;;;;;;;;;23.70;49.10;;;;;;494352;240;1169;-47
2021/10/11 08:46:35;;;;;;;;;;;23.70;49.10;;;;;;494278;236;1229;-47
2021/10/11 08:48:36;;;;;;;;;;;23.80;49.20;;;;;;494355;240;2190;-47
2021/10/11 08:50:37;;;;;;;;;;;23.80;49.10;;;;;;494457;241;1144;-47
2021/10/11 08:52:39;;;;;;;;;;;23.80;49.20;;;;;;494518;240;1077;-47
2021/10/11 08:54:40;;;;;;;;;;;23.70;49.00;;;;;;494429;241;1051;-47
2021/10/11 08:56:42;;;;;;;;;;;23.80;49.10;;;;;;494061;241;1361;-47
2021/10/11 08:58:43;;;;;;;;;;;23.80;49.00;;;;;;494202;240;1179;-47
2021/10/11 09:00:45;;;;;;;;;;;23.80;49.00;;;;;;494333;240;1233;-47
2021/10/11 09:02:46;;;;;;;;;;;23.80;49.00;;;;;;494305;241;1123;-47
2021/10/11 09:04:47;;;;;;;;;;;23.70;48.90;;;;;;494345;240;1216;-47
2021/10/11 09:06:49;;;;;;;;;;;23.80;48.90;;;;;;494856;240;1198;-47
2021/10/11 09:08:50;;;;;;;;;;;23.80;48.90;;;;;;494630;240;2181;-47
2021/10/11 09:10:51;;;;;;;;;;;23.80;48.90;;;;;;494463;241;1153;-47
2021/10/11 09:12:53;;;;;;;;;;;23.80;48.90;;;;;;494480;240;1190;-47
2021/10/11 09:14:54;;;;;;;;;;;23.80;48.90;;;;;;494405;241;1052;-47
2021/10/11 09:17:02;;;;;;;;;;;23.80;48.80;;;;;;494102;240;1257;-47
2021/10/11 09:19:03;;;;;;;;;;;23.80;48.80;;;;;;494247;240;2822;-47
2021/10/11 09:21:04;;;;;;;;;;;23.80;48.80;;;;;;493843;240;1352;-47
2021/10/11 09:23:05;;;;;;;;;;;23.80;48.80;;;;;;494959;240;1281;-47
2021/10/11 09:25:07;;;;;;;;;;;23.80;48.80;;;;;;494709;241;988;-47
2021/10/11 09:27:08;;;;;;;;;;;23.80;48.70;;;;;;494446;240;1092;-47
2021/10/11 09:29:09;;;;;;;;;;;23.80;48.70;;;;;;494517;240;2191;-47
2021/10/11 09:31:11;;;;;;;;;;;23.80;48.70;;;;;;494031;241;1429;-47
2021/10/11 09:33:12;;;;;;;;;;;23.80;48.70;;;;;;494097;240;1305;-47
2021/10/11 09:35:14;;;;;;;;;;;23.80;48.70;;;;;;494500;240;1187;-47
2021/10/11 09:37:15;;;;;;;;;;;23.80;48.70;;;;;;494520;240;1301;-47
2021/10/11 09:39:16;;;;;;;;;;;23.80;48.70;;;;;;493910;241;1095;-47
2021/10/11 09:41:18;;;;;;;;;;;23.80;48.70;;;;;;494094;241;1449;-47
2021/10/11 09:43:20;;;;;;;;;;;23.80;48.70;;;;;;494474;240;1098;-47
2021/10/11 09:45:21;;;;;;;;;;;23.80;48.70;;;;;;494461;240;1066;-47
2021/10/11 09:47:26;;;;;;;;;;;23.80;48.70;;;;;;494390;240;1492;-47
2021/10/11 09:49:25;;;;;;;;;;;23.80;48.60;;;;;;493601;240;2182;-47
2021/10/11 09:51:26;;;;;;;;;;;23.80;48.50;;;;;;494349;240;1218;-47
2021/10/11 09:53:29;;;;;;;;;;;23.80;48.50;;;;;;494528;241;1186;-47
2021/10/11 09:55:29;;;;;;;;;;;23.80;48.50;;;;;;494597;241;2152;-47
2021/10/11 09:57:30;;;;;;;;;;;23.80;48.60;;;;;;494593;240;1196;-47
2021/10/11 09:59:32;;;;;;;;;;;23.80;48.60;;;;;;494480;241;1066;-47
2021/10/11 10:01:33;;;;;;;;;;;23.80;48.50;;;;;;494493;240;1405;-47
2021/10/11 10:03:34;;;;;;;;;;;23.80;48.50;;;;;;495140;240;1026;-47
2021/10/11 10:05:36;;;;;;;;;;;23.80;48.40;;;;;;494727;240;1177;-47
2021/10/11 10:07:37;;;;;;;;;;;23.80;48.40;;;;;;494481;241;1052;-46
2021/10/11 10:09:38;;;;;;;;;;;23.80;48.50;;;;;;494434;240;2191;-47
2021/10/11 10:11:40;;;;;;;;;;;23.90;48.50;;;;;;494205;240;1185;-47
2021/10/11 10:13:43;;;;;;;;;;;23.80;48.40;;;;;;494226;241;1090;-47
2021/10/11 10:15:43;;;;;;;;;;;23.80;48.40;;;;;;494199;241;1860;-47
2021/10/11 10:17:44;;;;;;;;;;;23.80;48.40;;;;;;494448;240;1305;-47
2021/10/11 10:19:45;;;;;;;;;;;23.80;48.40;;;;;;494490;240;1195;-47
2021/10/11 10:21:47;;;;;;;;;;;23.80;48.50;;;;;;494457;240;1411;-47
2021/10/11 10:23:48;;;;;;;;;;;23.80;48.40;;;;;;494435;240;1198;-47
2021/10/11 10:25:49;;;;;;;;;;;23.80;48.40;;;;;;494346;241;1150;-47
2021/10/11 10:27:51;;;;;;;;;;;23.80;48.40;;;;;;494388;241;1163;-47
2021/10/11 10:29:52;;;;;;;;;;;23.80;48.40;;;;;;494720;240;2181;-47
2021/10/11 10:31:53;;;;;;;;;;;23.80;48.40;;;;;;494498;241;1003;-47
2021/10/11 10:33:55;;;;;;;;;;;23.80;48.40;;;;;;494337;240;1106;-47
2021/10/11 10:35:56;;;;;;;;;;;23.90;48.40;;;;;;494513;240;1197;-47
2021/10/11 10:37:57;;;;;;;;;;;23.90;48.30;;;;;;494361;241;1168;-47
2021/10/11 10:39:58;;;;;;;;;;;23.80;48.30;;;;;;494580;240;1079;-47
2021/10/11 10:42:00;;;;;;;;;;;23.80;48.30;;;;;;494361;241;1195;-47
2021/10/11 10:44:01;;;;;;;;;;;23.80;48.30;;;;;;494616;240;1126;-47
2021/10/11 10:46:02;;;;;;;;;;;23.80;48.30;;;;;;494484;241;1230;-47
2021/10/11 10:48:04;;;;;;;;;;;23.80;48.30;;;;;;494414;240;1121;-47
2021/10/11 10:50:05;;;;;;;;;;;23.90;48.30;;;;;;494338;237;2178;-47
2021/10/11 10:52:08;;;;;;;;;;;23.80;48.20;;;;;;494273;240;1202;-47
2021/10/11 10:54:08;;;;;;;;;;;23.80;48.20;;;;;;493717;240;2003;-47
2021/10/11 10:56:09;;;;;;;;;;;23.80;48.30;;;;;;494327;240;1288;-47
2021/10/11 10:58:11;;;;;;;;;;;23.80;48.30;;;;;;494424;240;1744;-47
2021/10/11 11:00:15;;;;;;;;;;;23.80;48.30;;;;;;494281;240;1071;-47
2021/10/11 11:02:15;;;;;;;;;;;23.80;48.40;;;;;;494614;240;2109;-47
2021/10/11 11:04:22;;;;;;;;;;;23.80;48.30;;;;;;495062;240;913;-47
2021/10/11 11:06:18;;;;;;;;;;;23.80;48.40;;;;;;494084;240;2126;-46
2021/10/11 11:08:19;;;;;;;;;;;23.80;48.50;;;;;;494384;240;1064;-47
2021/10/11 11:10:21;;;;;;;;;;;23.70;48.40;;;;;;494456;240;2183;-47
2021/10/11 11:12:22;;;;;;;;;;;23.70;48.50;;;;;;494330;241;1230;-47
2021/10/11 11:14:24;;;;;;;;;;;23.70;48.50;;;;;;494346;241;1160;-47
2021/10/11 11:16:25;;;;;;;;;;;23.60;48.60;;;;;;494230;241;1336;-47
2021/10/11 11:18:27;;;;;;;;;;;23.60;48.70;;;;;;494711;241;1221;-47
2021/10/11 11:20:28;;;;;;;;;;;23.60;48.80;;;;;;494968;240;1260;-47
2021/10/11 11:22:30;;;;;;;;;;;23.60;48.90;;;;;;494407;240;1283;-47
2021/10/11 11:24:31;;;;;;;;;;;23.50;49.00;;;;;;494321;240;1108;-47
2021/10/11 11:26:32;;;;;;;;;;;23.40;49.00;;;;;;494390;240;1338;-47
2021/10/11 11:28:36;;;;;;;;;;;23.50;49.10;;;;;;494718;240;1169;-47
2021/10/11 11:30:35;;;;;;;;;;;23.40;49.30;;;;;;494284;240;2291;-46
2021/10/11 11:32:36;;;;;;;;;;;23.30;49.40;;;;;;494673;241;1248;-47
2021/10/11 11:34:37;;;;;;;;;;;23.30;49.40;;;;;;494615;241;1036;-47
2021/10/11 11:36:39;;;;;;;;;;;23.30;49.50;;;;;;494294;240;1242;-47
2021/10/11 11:38:40;;;;;;;;;;;23.20;49.50;;;;;;495130;240;1064;-47
2021/10/11 11:40:41;;;;;;;;;;;23.30;49.50;;;;;;494718;241;1177;-47
2021/10/11 11:42:43;;;;;;;;;;;23.20;49.60;;;;;;494277;240;1273;-47
2021/10/11 11:44:44;;;;;;;;;;;23.20;49.70;;;;;;494158;241;1074;-47
2021/10/11 11:46:45;;;;;;;;;;;23.10;49.70;;;;;;494299;240;1436;-47
2021/10/11 11:48:47;;;;;;;;;;;23.10;49.70;;;;;;494312;240;1273;-46
2021/10/11 11:50:49;;;;;;;;;;;23.10;49.80;;;;;;494223;241;2185;-47
2021/10/11 11:52:52;;;;;;;;;;;23.10;49.80;;;;;;494560;241;2318;-47
2021/10/11 11:54:52;;;;;;;;;;;23.10;49.90;;;;;;494260;240;2794;-47
2021/10/11 11:56:53;;;;;;;;;;;23.00;49.90;;;;;;494271;240;1331;-47